sensor_id;sensor_type;location;lat;lon;timestamp;P1;durP1;ratioP1;P2;durP2;ratioP2
29210;SDS011;16250;49.932;10.980;2023-02-28T00:00:22;15.38;;;14.27;;
29210;SDS011;16250;49.932;10.980;2023-02-28T00:02:48;15.35;;;14.05;;
29210;SDS011;16250;49.932;10.980;2023-02-28T00:05:15;14.10;;;12.70;;
29210;SDS011;16250;49.932;10.980;2023-02-28T00:07:42;14.30;;;13.27;;
29210;SDS011;16250;49.932;10.980;2023-02-28T00:10:08;12.10;;;11.00;;
29210;SDS011;16250;49.932;10.980;2023-02-28T00:12:35;12.52;;;11.32;;
29210;SDS011;16250;49.932;10.980;2023-02-28T00:15:00;13.05;;;11.80;;
29210;SDS011;16250;49.932;10.980;2023-02-28T00:17:26;13.00;;;12.10;;
29210;SDS011;16250;49.932;10.980;2023-02-28T00:19:52;12.50;;;11.50;;
29210;SDS011;16250;49.932;10.980;2023-02-28T00:22:18;11.93;;;10.90;;
29210;SDS011;16250;49.932;10.980;2023-02-28T00:24:44;13.43;;;12.43;;
29210;SDS011;16250;49.932;10.980;2023-02-28T00:27:10;13.35;;;12.40;;
29210;SDS011;16250;49.932;10.980;2023-02-28T00:29:35;11.85;;;10.75;;
29210;SDS011;16250;49.932;10.980;2023-02-28T00:32:02;10.68;;;9.45;;
29210;SDS011;16250;49.932;10.980;2023-02-28T00:34:29;11.13;;;10.13;;
29210;SDS011;16250;49.932;10.980;2023-02-28T00:36:55;12.60;;;11.60;;
29210;SDS011;16250;49.932;10.980;2023-02-28T00:39:20;11.60;;;10.55;;
29210;SDS011;16250;49.932;10.980;2023-02-28T00:41:47;11.52;;;10.63;;
29210;SDS011;16250;49.932;10.980;2023-02-28T00:44:12;11.85;;;10.98;;
29210;SDS011;16250;49.932;10.980;2023-02-28T00:46:38;10.82;;;9.80;;
29210;SDS011;16250;49.932;10.980;2023-02-28T00:49:03;10.55;;;9.60;;
29210;SDS011;16250;49.932;10.980;2023-02-28T00:51:29;12.40;;;11.40;;
29210;SDS011;16250;49.932;10.980;2023-02-28T00:53:56;10.50;;;9.60;;
29210;SDS011;16250;49.932;10.980;2023-02-28T00:56:22;13.15;;;12.15;;
29210;SDS011;16250;49.932;10.980;2023-02-28T00:58:48;12.68;;;11.57;;
29210;SDS011;16250;49.932;10.980;2023-02-28T01:01:13;11.75;;;10.85;;
29210;SDS011;16250;49.932;10.980;2023-02-28T01:03:39;11.82;;;10.85;;
29210;SDS011;16250;49.932;10.980;2023-02-28T01:06:23;11.82;;;10.93;;
29210;SDS011;16250;49.932;10.980;2023-02-28T01:08:54;11.70;;;10.80;;
29210;SDS011;16250;49.932;10.980;2023-02-28T01:11:21;11.68;;;9.65;;
29210;SDS011;16250;49.932;10.980;2023-02-28T01:13:49;13.13;;;12.13;;
29210;SDS011;16250;49.932;10.980;2023-02-28T01:16:14;13.95;;;12.95;;
29210;SDS011;16250;49.932;10.980;2023-02-28T01:18:40;14.07;;;13.10;;
29210;SDS011;16250;49.932;10.980;2023-02-28T01:21:07;12.25;;;11.35;;
29210;SDS011;16250;49.932;10.980;2023-02-28T01:23:34;12.77;;;11.45;;
29210;SDS011;16250;49.932;10.980;2023-02-28T01:26:16;13.95;;;12.95;;
29210;SDS011;16250;49.932;10.980;2023-02-28T01:28:43;11.07;;;10.27;;
29210;SDS011;16250;49.932;10.980;2023-02-28T01:31:09;13.65;;;12.45;;
29210;SDS011;16250;49.932;10.980;2023-02-28T01:33:36;13.25;;;12.25;;
29210;SDS011;16250;49.932;10.980;2023-02-28T01:36:21;13.25;;;12.15;;
29210;SDS011;16250;49.932;10.980;2023-02-28T01:38:47;13.60;;;12.30;;
29210;SDS011;16250;49.932;10.980;2023-02-28T01:41:16;15.57;;;14.55;;
29210;SDS011;16250;49.932;10.980;2023-02-28T01:46:11;14.00;;;13.07;;
29210;SDS011;16250;49.932;10.980;2023-02-28T01:48:38;15.30;;;14.00;;
29210;SDS011;16250;49.932;10.980;2023-02-28T01:51:11;12.98;;;11.95;;
29210;SDS011;16250;49.932;10.980;2023-02-28T01:53:51;14.40;;;13.30;;
29210;SDS011;16250;49.932;10.980;2023-02-28T01:56:20;13.07;;;11.98;;
29210;SDS011;16250;49.932;10.980;2023-02-28T01:58:49;14.20;;;12.98;;
29210;SDS011;16250;49.932;10.980;2023-02-28T02:01:16;14.88;;;13.77;;
29210;SDS011;16250;49.932;10.980;2023-02-28T02:03:49;13.48;;;12.38;;
29210;SDS011;16250;49.932;10.980;2023-02-28T02:06:21;12.30;;;11.20;;
29210;SDS011;16250;49.932;10.980;2023-02-28T02:08:48;13.63;;;12.40;;
29210;SDS011;16250;49.932;10.980;2023-02-28T02:11:13;14.10;;;13.00;;
29210;SDS011;16250;49.932;10.980;2023-02-28T02:21:47;14.45;;;13.27;;
29210;SDS011;16250;49.932;10.980;2023-02-28T02:30:02;14.35;;;13.30;;
29210;SDS011;16250;49.932;10.980;2023-02-28T02:35:20;12.52;;;11.63;;
29210;SDS011;16250;49.932;10.980;2023-02-28T02:40:35;13.53;;;12.27;;
29210;SDS011;16250;49.932;10.980;2023-02-28T02:43:06;13.90;;;12.68;;
29210;SDS011;16250;49.932;10.980;2023-02-28T02:45:52;16.42;;;15.10;;
29210;SDS011;16250;49.932;10.980;2023-02-28T02:48:21;14.73;;;13.43;;
29210;SDS011;16250;49.932;10.980;2023-02-28T02:50:55;15.02;;;13.60;;
29210;SDS011;16250;49.932;10.980;2023-02-28T02:53:25;14.60;;;13.60;;
29210;SDS011;16250;49.932;10.980;2023-02-28T02:55:55;20.17;;;18.17;;
29210;SDS011;16250;49.932;10.980;2023-02-28T02:58:24;22.15;;;17.63;;
29210;SDS011;16250;49.932;10.980;2023-02-28T03:00:53;15.95;;;14.82;;
29210;SDS011;16250;49.932;10.980;2023-02-28T03:03:21;17.63;;;16.33;;
29210;SDS011;16250;49.932;10.980;2023-02-28T03:05:54;15.18;;;13.70;;
29210;SDS011;16250;49.932;10.980;2023-02-28T03:08:21;15.82;;;14.50;;
29210;SDS011;16250;49.932;10.980;2023-02-28T03:10:50;17.17;;;15.77;;
29210;SDS011;16250;49.932;10.980;2023-02-28T03:13:24;15.75;;;14.32;;
29210;SDS011;16250;49.932;10.980;2023-02-28T03:18:54;16.30;;;15.10;;
29210;SDS011;16250;49.932;10.980;2023-02-28T03:26:45;17.70;;;16.23;;
29210;SDS011;16250;49.932;10.980;2023-02-28T03:29:25;17.13;;;15.88;;
29210;SDS011;16250;49.932;10.980;2023-02-28T03:31:53;15.15;;;13.60;;
29210;SDS011;16250;49.932;10.980;2023-02-28T03:36:57;15.40;;;14.00;;
29210;SDS011;16250;49.932;10.980;2023-02-28T03:39:28;16.05;;;14.75;;
29210;SDS011;16250;49.932;10.980;2023-02-28T03:42:01;16.95;;;15.45;;
29210;SDS011;16250;49.932;10.980;2023-02-28T03:44:33;16.90;;;15.60;;
29210;SDS011;16250;49.932;10.980;2023-02-28T03:47:00;16.75;;;15.55;;
29210;SDS011;16250;49.932;10.980;2023-02-28T03:49:30;16.80;;;15.30;;
29210;SDS011;16250;49.932;10.980;2023-02-28T03:51:59;17.13;;;15.80;;
29210;SDS011;16250;49.932;10.980;2023-02-28T03:54:35;19.25;;;17.80;;
29210;SDS011;16250;49.932;10.980;2023-02-28T03:57:08;20.55;;;19.05;;
29210;SDS011;16250;49.932;10.980;2023-02-28T04:02:37;19.95;;;18.10;;
29210;SDS011;16250;49.932;10.980;2023-02-28T04:05:04;18.08;;;16.77;;
29210;SDS011;16250;49.932;10.980;2023-02-28T04:07:30;17.40;;;15.68;;
29210;SDS011;16250;49.932;10.980;2023-02-28T04:09:56;17.27;;;15.63;;
29210;SDS011;16250;49.932;10.980;2023-02-28T04:12:21;16.95;;;15.38;;
29210;SDS011;16250;49.932;10.980;2023-02-28T04:14:48;18.77;;;17.00;;
29210;SDS011;16250;49.932;10.980;2023-02-28T04:17:14;17.67;;;16.02;;
29210;SDS011;16250;49.932;10.980;2023-02-28T04:19:40;16.88;;;15.38;;
29210;SDS011;16250;49.932;10.980;2023-02-28T04:22:08;18.58;;;17.15;;
29210;SDS011;16250;49.932;10.980;2023-02-28T04:24:34;16.23;;;14.77;;
29210;SDS011;16250;49.932;10.980;2023-02-28T04:27:15;16.33;;;14.68;;
29210;SDS011;16250;49.932;10.980;2023-02-28T04:29:44;16.67;;;15.27;;
29210;SDS011;16250;49.932;10.980;2023-02-28T04:32:09;19.60;;;18.00;;
29210;SDS011;16250;49.932;10.980;2023-02-28T04:34:35;19.83;;;18.33;;
29210;SDS011;16250;49.932;10.980;2023-02-28T04:37:01;18.52;;;17.13;;
29210;SDS011;16250;49.932;10.980;2023-02-28T04:39:26;18.40;;;16.80;;
29210;SDS011;16250;49.932;10.980;2023-02-28T04:41:52;16.70;;;15.07;;
29210;SDS011;16250;49.932;10.980;2023-02-28T04:44:17;19.92;;;18.40;;
29210;SDS011;16250;49.932;10.980;2023-02-28T04:46:43;17.58;;;16.27;;
29210;SDS011;16250;49.932;10.980;2023-02-28T04:49:09;16.27;;;14.88;;
29210;SDS011;16250;49.932;10.980;2023-02-28T04:51:36;17.40;;;15.68;;
29210;SDS011;16250;49.932;10.980;2023-02-28T04:54:01;16.98;;;15.40;;
29210;SDS011;16250;49.932;10.980;2023-02-28T04:56:26;16.67;;;15.27;;
29210;SDS011;16250;49.932;10.980;2023-02-28T04:58:52;16.23;;;14.73;;
29210;SDS011;16250;49.932;10.980;2023-02-28T05:01:23;18.92;;;17.42;;
29210;SDS011;16250;49.932;10.980;2023-02-28T05:03:52;17.90;;;16.50;;
29210;SDS011;16250;49.932;10.980;2023-02-28T05:06:19;15.60;;;14.20;;
29210;SDS011;16250;49.932;10.980;2023-02-28T05:08:45;18.60;;;17.08;;
29210;SDS011;16250;49.932;10.980;2023-02-28T05:11:30;16.65;;;15.15;;
29210;SDS011;16250;49.932;10.980;2023-02-28T05:14:07;16.77;;;15.13;;
29210;SDS011;16250;49.932;10.980;2023-02-28T05:16:37;19.70;;;18.23;;
29210;SDS011;16250;49.932;10.980;2023-02-28T05:19:03;17.73;;;16.02;;
29210;SDS011;16250;49.932;10.980;2023-02-28T05:21:29;30.60;;;20.05;;
29210;SDS011;16250;49.932;10.980;2023-02-28T05:24:00;45.67;;;26.65;;
29210;SDS011;16250;49.932;10.980;2023-02-28T05:26:27;21.60;;;19.30;;
29210;SDS011;16250;49.932;10.980;2023-02-28T05:28:53;22.08;;;20.08;;
29210;SDS011;16250;49.932;10.980;2023-02-28T05:31:18;17.13;;;15.48;;
29210;SDS011;16250;49.932;10.980;2023-02-28T05:33:44;18.52;;;17.02;;
29210;SDS011;16250;49.932;10.980;2023-02-28T05:36:09;18.15;;;16.25;;
29210;SDS011;16250;49.932;10.980;2023-02-28T05:38:35;18.58;;;16.98;;
29210;SDS011;16250;49.932;10.980;2023-02-28T05:41:00;15.65;;;13.25;;
29210;SDS011;16250;49.932;10.980;2023-02-28T05:43:30;16.30;;;14.70;;
29210;SDS011;16250;49.932;10.980;2023-02-28T05:45:55;18.33;;;16.75;;
29210;SDS011;16250;49.932;10.980;2023-02-28T05:48:21;16.25;;;14.55;;
29210;SDS011;16250;49.932;10.980;2023-02-28T05:50:46;20.75;;;19.05;;
29210;SDS011;16250;49.932;10.980;2023-02-28T05:53:11;18.42;;;16.63;;
29210;SDS011;16250;49.932;10.980;2023-02-28T05:55:37;20.38;;;18.67;;
29210;SDS011;16250;49.932;10.980;2023-02-28T05:58:03;21.75;;;19.90;;
29210;SDS011;16250;49.932;10.980;2023-02-28T06:00:28;21.17;;;19.52;;
29210;SDS011;16250;49.932;10.980;2023-02-28T06:02:54;20.13;;;18.52;;
29210;SDS011;16250;49.932;10.980;2023-02-28T06:05:22;17.90;;;15.93;;
29210;SDS011;16250;49.932;10.980;2023-02-28T06:07:48;19.48;;;17.77;;
29210;SDS011;16250;49.932;10.980;2023-02-28T06:10:13;17.95;;;15.63;;
29210;SDS011;16250;49.932;10.980;2023-02-28T06:12:39;18.88;;;15.77;;
29210;SDS011;16250;49.932;10.980;2023-02-28T06:15:06;18.38;;;16.85;;
29210;SDS011;16250;49.932;10.980;2023-02-28T06:17:32;19.40;;;17.42;;
29210;SDS011;16250;49.932;10.980;2023-02-28T06:19:58;18.52;;;16.10;;
29210;SDS011;16250;49.932;10.980;2023-02-28T06:22:23;19.65;;;17.90;;
29210;SDS011;16250;49.932;10.980;2023-02-28T06:24:48;18.33;;;16.70;;
29210;SDS011;16250;49.932;10.980;2023-02-28T06:27:14;18.75;;;16.90;;
29210;SDS011;16250;49.932;10.980;2023-02-28T06:29:39;19.13;;;14.10;;
29210;SDS011;16250;49.932;10.980;2023-02-28T06:32:05;18.35;;;16.75;;
29210;SDS011;16250;49.932;10.980;2023-02-28T06:34:30;17.13;;;15.45;;
29210;SDS011;16250;49.932;10.980;2023-02-28T06:36:56;17.13;;;15.43;;
29210;SDS011;16250;49.932;10.980;2023-02-28T06:39:22;18.38;;;16.67;;
29210;SDS011;16250;49.932;10.980;2023-02-28T06:41:47;19.00;;;17.27;;
29210;SDS011;16250;49.932;10.980;2023-02-28T06:44:16;16.52;;;14.43;;
29210;SDS011;16250;49.932;10.980;2023-02-28T06:46:43;19.67;;;17.75;;
29210;SDS011;16250;49.932;10.980;2023-02-28T06:49:09;18.77;;;17.13;;
29210;SDS011;16250;49.932;10.980;2023-02-28T06:51:36;18.35;;;16.75;;
29210;SDS011;16250;49.932;10.980;2023-02-28T06:54:03;17.27;;;15.65;;
29210;SDS011;16250;49.932;10.980;2023-02-28T06:56:28;18.48;;;15.52;;
29210;SDS011;16250;49.932;10.980;2023-02-28T06:58:53;18.52;;;16.90;;
29210;SDS011;16250;49.932;10.980;2023-02-28T07:01:19;17.58;;;16.05;;
29210;SDS011;16250;49.932;10.980;2023-02-28T07:03:45;16.60;;;13.70;;
29210;SDS011;16250;49.932;10.980;2023-02-28T07:06:11;17.35;;;15.75;;
29210;SDS011;16250;49.932;10.980;2023-02-28T07:08:36;16.35;;;14.85;;
29210;SDS011;16250;49.932;10.980;2023-02-28T07:11:02;17.20;;;15.55;;
29210;SDS011;16250;49.932;10.980;2023-02-28T07:13:28;15.50;;;13.88;;
29210;SDS011;16250;49.932;10.980;2023-02-28T07:15:58;17.38;;;15.77;;
29210;SDS011;16250;49.932;10.980;2023-02-28T07:18:24;17.95;;;16.25;;
29210;SDS011;16250;49.932;10.980;2023-02-28T07:20:50;19.95;;;14.60;;
29210;SDS011;16250;49.932;10.980;2023-02-28T07:23:16;16.60;;;14.02;;
29210;SDS011;16250;49.932;10.980;2023-02-28T07:25:41;18.17;;;14.35;;
29210;SDS011;16250;49.932;10.980;2023-02-28T07:28:07;17.02;;;15.43;;
29210;SDS011;16250;49.932;10.980;2023-02-28T07:30:32;17.90;;;15.77;;
29210;SDS011;16250;49.932;10.980;2023-02-28T07:32:58;16.85;;;15.13;;
29210;SDS011;16250;49.932;10.980;2023-02-28T07:35:23;17.40;;;15.68;;
29210;SDS011;16250;49.932;10.980;2023-02-28T07:37:49;17.20;;;15.40;;
29210;SDS011;16250;49.932;10.980;2023-02-28T07:40:14;16.08;;;14.55;;
29210;SDS011;16250;49.932;10.980;2023-02-28T07:42:41;15.55;;;14.00;;
29210;SDS011;16250;49.932;10.980;2023-02-28T07:45:08;16.17;;;14.57;;
29210;SDS011;16250;49.932;10.980;2023-02-28T07:47:36;15.57;;;13.98;;
29210;SDS011;16250;49.932;10.980;2023-02-28T07:50:05;13.88;;;12.55;;
29210;SDS011;16250;49.932;10.980;2023-02-28T07:52:31;14.10;;;12.70;;
29210;SDS011;16250;49.932;10.980;2023-02-28T07:54:57;16.05;;;14.20;;
29210;SDS011;16250;49.932;10.980;2023-02-28T07:57:23;15.73;;;13.93;;
29210;SDS011;16250;49.932;10.980;2023-02-28T07:59:48;16.50;;;14.80;;
29210;SDS011;16250;49.932;10.980;2023-02-28T08:02:15;14.60;;;13.20;;
29210;SDS011;16250;49.932;10.980;2023-02-28T08:04:41;15.25;;;13.05;;
29210;SDS011;16250;49.932;10.980;2023-02-28T08:07:06;14.55;;;13.02;;
29210;SDS011;16250;49.932;10.980;2023-02-28T08:09:32;15.18;;;13.63;;
29210;SDS011;16250;49.932;10.980;2023-02-28T08:11:57;13.93;;;12.40;;
29210;SDS011;16250;49.932;10.980;2023-02-28T08:14:23;15.15;;;13.27;;
29210;SDS011;16250;49.932;10.980;2023-02-28T08:16:48;14.80;;;13.23;;
29210;SDS011;16250;49.932;10.980;2023-02-28T08:19:13;15.02;;;13.52;;
29210;SDS011;16250;49.932;10.980;2023-02-28T08:21:39;14.43;;;12.73;;
29210;SDS011;16250;49.932;10.980;2023-02-28T08:24:05;14.75;;;13.15;;
29210;SDS011;16250;49.932;10.980;2023-02-28T08:26:30;15.60;;;13.77;;
29210;SDS011;16250;49.932;10.980;2023-02-28T08:28:56;13.90;;;12.52;;
29210;SDS011;16250;49.932;10.980;2023-02-28T08:31:21;13.90;;;12.60;;
29210;SDS011;16250;49.932;10.980;2023-02-28T08:33:47;16.23;;;13.15;;
29210;SDS011;16250;49.932;10.980;2023-02-28T08:36:16;14.82;;;13.27;;
29210;SDS011;16250;49.932;10.980;2023-02-28T08:38:41;14.73;;;13.20;;
29210;SDS011;16250;49.932;10.980;2023-02-28T08:41:08;14.63;;;13.00;;
29210;SDS011;16250;49.932;10.980;2023-02-28T08:43:36;14.85;;;13.32;;
29210;SDS011;16250;49.932;10.980;2023-02-28T08:46:02;13.23;;;11.93;;
29210;SDS011;16250;49.932;10.980;2023-02-28T08:48:29;14.27;;;12.68;;
29210;SDS011;16250;49.932;10.980;2023-02-28T08:51:00;15.63;;;11.82;;
29210;SDS011;16250;49.932;10.980;2023-02-28T08:53:27;14.35;;;12.88;;
29210;SDS011;16250;49.932;10.980;2023-02-28T08:56:00;14.77;;;13.38;;
29210;SDS011;16250;49.932;10.980;2023-02-28T08:58:35;17.83;;;12.35;;
29210;SDS011;16250;49.932;10.980;2023-02-28T09:01:07;19.20;;;12.82;;
29210;SDS011;16250;49.932;10.980;2023-02-28T09:03:33;13.52;;;12.10;;
29210;SDS011;16250;49.932;10.980;2023-02-28T09:05:59;13.93;;;12.63;;
29210;SDS011;16250;49.932;10.980;2023-02-28T09:08:26;16.55;;;12.88;;
29210;SDS011;16250;49.932;10.980;2023-02-28T09:10:53;13.82;;;12.45;;
29210;SDS011;16250;49.932;10.980;2023-02-28T09:13:21;13.20;;;11.80;;
29210;SDS011;16250;49.932;10.980;2023-02-28T09:15:47;14.80;;;12.63;;
29210;SDS011;16250;49.932;10.980;2023-02-28T09:18:12;13.00;;;11.50;;
29210;SDS011;16250;49.932;10.980;2023-02-28T09:20:38;14.35;;;12.82;;
29210;SDS011;16250;49.932;10.980;2023-02-28T09:23:05;13.02;;;11.73;;
29210;SDS011;16250;49.932;10.980;2023-02-28T09:25:31;13.27;;;11.20;;
29210;SDS011;16250;49.932;10.980;2023-02-28T09:27:56;13.20;;;11.63;;
29210;SDS011;16250;49.932;10.980;2023-02-28T09:30:21;12.73;;;11.43;;
29210;SDS011;16250;49.932;10.980;2023-02-28T09:32:47;12.23;;;11.02;;
29210;SDS011;16250;49.932;10.980;2023-02-28T09:35:18;15.00;;;11.15;;
29210;SDS011;16250;49.932;10.980;2023-02-28T09:37:44;13.02;;;11.65;;
29210;SDS011;16250;49.932;10.980;2023-02-28T09:40:10;11.73;;;10.55;;
29210;SDS011;16250;49.932;10.980;2023-02-28T09:42:37;13.65;;;11.27;;
29210;SDS011;16250;49.932;10.980;2023-02-28T09:45:05;14.55;;;10.80;;
29210;SDS011;16250;49.932;10.980;2023-02-28T09:47:38;13.23;;;11.18;;
29210;SDS011;16250;49.932;10.980;2023-02-28T09:50:30;13.85;;;11.10;;
29210;SDS011;16250;49.932;10.980;2023-02-28T09:52:51;17.42;;;11.75;;
29210;SDS011;16250;49.932;10.980;2023-02-28T09:58:00;14.27;;;12.00;;
29210;SDS011;16250;49.932;10.980;2023-02-28T10:00:31;14.05;;;11.68;;
29210;SDS011;16250;49.932;10.980;2023-02-28T10:03:21;12.95;;;11.65;;
29210;SDS011;16250;49.932;10.980;2023-02-28T10:06:35;13.05;;;11.75;;
29210;SDS011;16250;49.932;10.980;2023-02-28T10:08:52;12.50;;;11.20;;
29210;SDS011;16250;49.932;10.980;2023-02-28T10:11:22;12.50;;;11.30;;
29210;SDS011;16250;49.932;10.980;2023-02-28T10:16:38;14.57;;;11.50;;
29210;SDS011;16250;49.932;10.980;2023-02-28T10:24:39;16.50;;;12.38;;
29210;SDS011;16250;49.932;10.980;2023-02-28T10:27:20;12.93;;;11.63;;
29210;SDS011;16250;49.932;10.980;2023-02-28T10:29:48;14.23;;;11.13;;
29210;SDS011;16250;49.932;10.980;2023-02-28T10:32:18;14.05;;;11.85;;
29210;SDS011;16250;49.932;10.980;2023-02-28T10:35:10;13.65;;;11.48;;
29210;SDS011;16250;49.932;10.980;2023-02-28T10:37:34;14.18;;;11.75;;
29210;SDS011;16250;49.932;10.980;2023-02-28T10:40:03;15.38;;;12.05;;
29210;SDS011;16250;49.932;10.980;2023-02-28T10:42:31;12.50;;;10.52;;
29210;SDS011;16250;49.932;10.980;2023-02-28T10:47:39;14.18;;;10.77;;
29210;SDS011;16250;49.932;10.980;2023-02-28T10:52:53;11.55;;;9.55;;
29210;SDS011;16250;49.932;10.980;2023-02-28T10:55:22;10.75;;;9.55;;
29210;SDS011;16250;49.932;10.980;2023-02-28T10:57:50;11.45;;;9.65;;
29210;SDS011;16250;49.932;10.980;2023-02-28T11:00:17;11.70;;;10.48;;
29210;SDS011;16250;49.932;10.980;2023-02-28T11:02:44;10.93;;;9.93;;
29210;SDS011;16250;49.932;10.980;2023-02-28T11:05:24;10.45;;;9.38;;
29210;SDS011;16250;49.932;10.980;2023-02-28T11:07:53;10.57;;;9.52;;
29210;SDS011;16250;49.932;10.980;2023-02-28T11:10:20;11.23;;;10.13;;
29210;SDS011;16250;49.932;10.980;2023-02-28T11:12:46;14.52;;;10.18;;
29210;SDS011;16250;49.932;10.980;2023-02-28T11:15:21;13.07;;;10.20;;
29210;SDS011;16250;49.932;10.980;2023-02-28T11:17:54;11.85;;;9.80;;
29210;SDS011;16250;49.932;10.980;2023-02-28T11:20:22;11.32;;;9.75;;
29210;SDS011;16250;49.932;10.980;2023-02-28T11:22:48;10.95;;;9.95;;
29210;SDS011;16250;49.932;10.980;2023-02-28T11:25:18;11.23;;;10.02;;
29210;SDS011;16250;49.932;10.980;2023-02-28T11:27:47;14.63;;;10.30;;
29210;SDS011;16250;49.932;10.980;2023-02-28T11:32:49;11.27;;;10.13;;
29210;SDS011;16250;49.932;10.980;2023-02-28T11:35:21;11.63;;;10.52;;
29210;SDS011;16250;49.932;10.980;2023-02-28T11:38:02;19.02;;;12.18;;
29210;SDS011;16250;49.932;10.980;2023-02-28T11:45:54;12.50;;;10.88;;
29210;SDS011;16250;49.932;10.980;2023-02-28T11:51:33;13.25;;;11.85;;
29210;SDS011;16250;49.932;10.980;2023-02-28T11:54:07;11.88;;;10.57;;
29210;SDS011;16250;49.932;10.980;2023-02-28T12:00:11;12.10;;;10.90;;
29210;SDS011;16250;49.932;10.980;2023-02-28T12:05:31;12.10;;;10.80;;
29210;SDS011;16250;49.932;10.980;2023-02-28T12:08:03;13.07;;;11.38;;
29210;SDS011;16250;49.932;10.980;2023-02-28T12:18:53;10.88;;;9.80;;
29210;SDS011;16250;49.932;10.980;2023-02-28T12:26:36;10.10;;;8.43;;
29210;SDS011;16250;49.932;10.980;2023-02-28T12:31:39;10.73;;;8.80;;
29210;SDS011;16250;49.932;10.980;2023-02-28T12:34:10;11.20;;;9.00;;
29210;SDS011;16250;49.932;10.980;2023-02-28T12:36:39;10.27;;;9.25;;
29210;SDS011;16250;49.932;10.980;2023-02-28T12:39:16;13.95;;;10.10;;
29210;SDS011;16250;49.932;10.980;2023-02-28T12:41:46;10.15;;;9.10;;
29210;SDS011;16250;49.932;10.980;2023-02-28T12:44:37;10.68;;;9.52;;
29210;SDS011;16250;49.932;10.980;2023-02-28T12:47:00;10.45;;;9.10;;
29210;SDS011;16250;49.932;10.980;2023-02-28T12:49:39;10.95;;;9.13;;
29210;SDS011;16250;49.932;10.980;2023-02-28T12:52:10;10.88;;;9.68;;
29210;SDS011;16250;49.932;10.980;2023-02-28T12:57:25;10.95;;;9.68;;
29210;SDS011;16250;49.932;10.980;2023-02-28T13:00:10;12.67;;;9.73;;
29210;SDS011;16250;49.932;10.980;2023-02-28T13:02:45;12.30;;;9.80;;
29210;SDS011;16250;49.932;10.980;2023-02-28T13:05:24;11.20;;;9.88;;
29210;SDS011;16250;49.932;10.980;2023-02-28T13:08:00;13.98;;;9.68;;
29210;SDS011;16250;49.932;10.980;2023-02-28T13:10:38;10.40;;;9.30;;
29210;SDS011;16250;49.932;10.980;2023-02-28T13:13:05;15.30;;;10.30;;
29210;SDS011;16250;49.932;10.980;2023-02-28T13:15:31;11.73;;;10.23;;
29210;SDS011;16250;49.932;10.980;2023-02-28T13:18:00;14.38;;;10.57;;
29210;SDS011;16250;49.932;10.980;2023-02-28T13:20:27;10.75;;;9.48;;
29210;SDS011;16250;49.932;10.980;2023-02-28T13:22:56;11.85;;;9.73;;
29210;SDS011;16250;49.932;10.980;2023-02-28T13:27:54;10.43;;;9.43;;
29210;SDS011;16250;49.932;10.980;2023-02-28T13:33:28;11.85;;;10.48;;
29210;SDS011;16250;49.932;10.980;2023-02-28T13:38:42;11.55;;;9.18;;
29210;SDS011;16250;49.932;10.980;2023-02-28T13:47:23;10.68;;;8.70;;
29210;SDS011;16250;49.932;10.980;2023-02-28T13:51:51;13.45;;;8.88;;
29210;SDS011;16250;49.932;10.980;2023-02-28T13:54:20;10.57;;;9.48;;
29210;SDS011;16250;49.932;10.980;2023-02-28T14:05:34;10.80;;;8.52;;
29210;SDS011;16250;49.932;10.980;2023-02-28T14:08:04;11.05;;;8.30;;
29210;SDS011;16250;49.932;10.980;2023-02-28T14:10:32;9.70;;;8.75;;
29210;SDS011;16250;49.932;10.980;2023-02-28T14:15:56;11.05;;;9.15;;
29210;SDS011;16250;49.932;10.980;2023-02-28T14:18:24;10.38;;;9.25;;
29210;SDS011;16250;49.932;10.980;2023-02-28T14:20:53;14.10;;;9.80;;
29210;SDS011;16250;49.932;10.980;2023-02-28T14:23:35;14.05;;;10.18;;
29210;SDS011;16250;49.932;10.980;2023-02-28T14:26:11;26.25;;;10.70;;
29210;SDS011;16250;49.932;10.980;2023-02-28T14:31:34;11.38;;;9.75;;
29210;SDS011;16250;49.932;10.980;2023-02-28T14:34:05;10.55;;;8.48;;
29210;SDS011;16250;49.932;10.980;2023-02-28T14:36:44;11.93;;;8.95;;
29210;SDS011;16250;49.932;10.980;2023-02-28T14:39:14;10.15;;;9.10;;
29210;SDS011;16250;49.932;10.980;2023-02-28T14:41:42;12.00;;;9.50;;
29210;SDS011;16250;49.932;10.980;2023-02-28T14:44:15;13.60;;;9.85;;
29210;SDS011;16250;49.932;10.980;2023-02-28T14:46:46;13.73;;;10.32;;
29210;SDS011;16250;49.932;10.980;2023-02-28T14:49:20;11.18;;;9.98;;
29210;SDS011;16250;49.932;10.980;2023-02-28T14:51:49;13.18;;;10.63;;
29210;SDS011;16250;49.932;10.980;2023-02-28T14:54:15;10.52;;;9.43;;
29210;SDS011;16250;49.932;10.980;2023-02-28T14:56:42;11.43;;;9.45;;
29210;SDS011;16250;49.932;10.980;2023-02-28T15:02:22;11.32;;;10.07;;
29210;SDS011;16250;49.932;10.980;2023-02-28T15:04:55;11.38;;;9.93;;
29210;SDS011;16250;49.932;10.980;2023-02-28T15:07:22;11.52;;;10.02;;
29210;SDS011;16250;49.932;10.980;2023-02-28T15:12:58;11.55;;;10.38;;
29210;SDS011;16250;49.932;10.980;2023-02-28T15:15:40;11.60;;;10.40;;
29210;SDS011;16250;49.932;10.980;2023-02-28T15:18:07;12.32;;;10.95;;
29210;SDS011;16250;49.932;10.980;2023-02-28T15:20:40;11.20;;;9.57;;
29210;SDS011;16250;49.932;10.980;2023-02-28T15:23:07;11.20;;;9.88;;
29210;SDS011;16250;49.932;10.980;2023-02-28T15:25:33;11.30;;;10.20;;
29210;SDS011;16250;49.932;10.980;2023-02-28T15:27:59;12.45;;;10.82;;
29210;SDS011;16250;49.932;10.980;2023-02-28T15:30:25;12.40;;;11.07;;
29210;SDS011;16250;49.932;10.980;2023-02-28T15:33:05;11.23;;;10.05;;
29210;SDS011;16250;49.932;10.980;2023-02-28T15:35:40;11.05;;;9.95;;
29210;SDS011;16250;49.932;10.980;2023-02-28T15:38:17;11.50;;;10.30;;
29210;SDS011;16250;49.932;10.980;2023-02-28T15:40:53;9.77;;;8.77;;
29210;SDS011;16250;49.932;10.980;2023-02-28T15:43:30;12.55;;;9.60;;
29210;SDS011;16250;49.932;10.980;2023-02-28T15:46:02;10.15;;;8.85;;
29210;SDS011;16250;49.932;10.980;2023-02-28T15:48:30;11.07;;;8.68;;
29210;SDS011;16250;49.932;10.980;2023-02-28T15:51:01;11.07;;;8.95;;
29210;SDS011;16250;49.932;10.980;2023-02-28T15:53:32;11.32;;;8.93;;
29210;SDS011;16250;49.932;10.980;2023-02-28T15:56:03;12.10;;;8.88;;
29210;SDS011;16250;49.932;10.980;2023-02-28T15:58:30;10.63;;;8.77;;
29210;SDS011;16250;49.932;10.980;2023-02-28T16:03:42;11.98;;;9.10;;
29210;SDS011;16250;49.932;10.980;2023-02-28T16:06:21;9.73;;;8.35;;
29210;SDS011;16250;49.932;10.980;2023-02-28T16:09:03;11.35;;;8.55;;
29210;SDS011;16250;49.932;10.980;2023-02-28T16:11:30;11.57;;;9.10;;
29210;SDS011;16250;49.932;10.980;2023-02-28T16:13:56;11.00;;;8.45;;
29210;SDS011;16250;49.932;10.980;2023-02-28T16:16:23;10.18;;;8.48;;
29210;SDS011;16250;49.932;10.980;2023-02-28T16:18:50;11.45;;;8.85;;
29210;SDS011;16250;49.932;10.980;2023-02-28T16:21:15;11.65;;;9.07;;
29210;SDS011;16250;49.932;10.980;2023-02-28T16:23:41;11.40;;;8.82;;
29210;SDS011;16250;49.932;10.980;2023-02-28T16:26:06;9.55;;;8.55;;
29210;SDS011;16250;49.932;10.980;2023-02-28T16:28:33;11.75;;;9.13;;